Time;durP1;ratioP1;P1;durP2;ratioP2;P2;SDS_P1;SDS_P2;PMS_P1;PMS_P2;Temp;Humidity;BMP_temperature;BMP_pressure;BME280_temperature;BME280_humidity;BME280_pressure;Samples;Min_cycle;Max_cycle;Signal;HPM_P1;HPM_P2
2023/11/17 00:00:45;;;;;;;0.40;0.40;;;;;;;2.47;100.00;100811.48;108917;1253;66860;-55
2023/11/17 00:03:12;;;;;;;0.50;0.40;;;;;;;2.49;100.00;100810.61;109010;1253;73344;-55
2023/11/17 00:05:40;;;;;;;0.40;0.40;;;;;;;2.50;100.00;100814.52;109062;1253;59153;-56
2023/11/17 00:08:07;;;;;;;2.50;0.50;;;;;;;2.53;100.00;100812.05;108964;1254;58800;-56
2023/11/17 00:10:35;;;;;;;0.70;0.50;;;;;;;2.55;100.00;100816.12;108992;1253;74791;-54
2023/11/17 00:13:02;;;;;;;2.20;0.60;;;;;;;2.55;100.00;100818.95;108940;1253;65486;-54
2023/11/17 00:15:30;;;;;;;1.10;0.60;;;;;;;2.53;100.00;100824.80;109019;1254;72299;-55
2023/11/17 00:17:58;;;;;;;0.70;0.50;;;;;;;2.51;100.00;100825.33;109001;1253;60947;-56
2023/11/17 00:20:26;;;;;;;1.60;0.70;;;;;;;2.51;100.00;100832.41;108964;1258;58735;-55
2023/11/17 00:22:53;;;;;;;1.10;0.50;;;;;;;2.50;100.00;100832.41;109017;1253;73637;-55
2023/11/17 00:25:21;;;;;;;0.70;0.50;;;;;;;2.48;100.00;100832.92;109074;1253;65553;-54
2023/11/17 00:27:49;;;;;;;0.60;0.50;;;;;;;2.46;100.00;100832.94;108959;1253;72704;-57
2023/11/17 00:30:17;;;;;;;0.70;0.50;;;;;;;2.44;100.00;100831.70;108955;1253;58692;-57
2023/11/17 00:32:45;;;;;;;1.70;0.60;;;;;;;2.44;100.00;100833.64;108987;1253;60376;-56
2023/11/17 00:35:12;;;;;;;2.30;0.50;;;;;;;2.46;100.00;100833.83;109064;1253;72980;-58
2023/11/17 00:37:40;;;;;;;0.70;0.50;;;;;;;2.48;100.00;100838.06;109096;1253;65642;-57
2023/11/17 00:40:08;;;;;;;0.50;0.50;;;;;;;2.51;100.00;100838.08;108974;1253;72701;-56
2023/11/17 00:42:36;;;;;;;1.10;0.60;;;;;;;2.55;100.00;100844.99;109023;1253;59719;-59
2023/11/17 00:45:07;;;;;;;1.70;0.50;;;;;;;2.55;100.00;100847.11;108948;1253;60667;-57
2023/11/17 00:47:35;;;;;;;4.00;0.50;;;;;;;2.54;100.00;100846.77;108977;1253;74235;-54
2023/11/17 00:50:10;;;;;;;0.50;0.50;;;;;;;2.52;100.00;100849.77;105945;1253;67764;-55
2023/11/17 00:52:39;;;;;;;0.60;0.60;;;;;;;2.49;100.00;100856.49;105798;1256;70474;-54
2023/11/17 00:55:07;;;;;;;1.80;0.50;;;;;;;2.45;100.00;100855.09;105567;1259;61088;-54
2023/11/17 00:57:35;;;;;;;0.70;0.50;;;;;;;2.43;100.00;100855.07;107589;1255;59330;-53
2023/11/17 01:00:04;;;;;;;0.80;0.40;;;;;;;2.40;100.00;100849.04;105447;1256;73001;-54
2023/11/17 01:02:32;;;;;;;4.20;0.50;;;;;;;2.39;100.00;100853.11;106376;1256;67028;-54
2023/11/17 01:04:59;;;;;;;0.70;0.50;;;;;;;2.37;100.00;100853.48;105453;1259;72719;-55
2023/11/17 01:07:27;;;;;;;0.80;0.50;;;;;;;2.37;100.00;100854.02;105287;1254;61111;-57
2023/11/17 01:09:55;;;;;;;1.00;0.60;;;;;;;2.38;100.00;100851.88;105288;1253;61449;-57
2023/11/17 01:12:23;;;;;;;0.70;0.40;;;;;;;2.37;100.00;100849.59;105303;1257;74244;-53
2023/11/17 01:14:50;;;;;;;0.60;0.40;;;;;;;2.37;100.00;100849.05;105401;1253;67789;-54
2023/11/17 01:17:17;;;;;;;0.70;0.50;;;;;;;2.39;100.00;100848.32;105304;1254;72763;-57
2023/11/17 01:19:45;;;;;;;1.50;0.50;;;;;;;2.38;100.00;100847.27;106040;1254;60515;-49
2023/11/17 01:22:13;;;;;;;1.50;0.60;;;;;;;2.35;100.00;100841.59;105471;1254;61370;-56
2023/11/17 01:24:40;;;;;;;0.80;0.60;;;;;;;2.33;100.00;100843.88;105390;1259;74818;-55
2023/11/17 01:27:07;;;;;;;0.70;0.50;;;;;;;2.31;100.00;100840.70;105429;1253;66908;-53
2023/11/17 01:29:35;;;;;;;2.30;0.60;;;;;;;2.26;100.00;100835.02;105204;1253;74354;-55
2023/11/17 01:32:03;;;;;;;0.80;0.50;;;;;;;2.20;100.00;100823.85;105365;1253;60499;-55
2023/11/17 01:34:31;;;;;;;0.80;0.60;;;;;;;2.15;100.00;100812.50;105269;1259;60658;-53
2023/11/17 01:36:58;;;;;;;4.80;0.60;;;;;;;2.13;100.00;100813.91;105568;1254;73994;-56
2023/11/17 01:39:26;;;;;;;1.00;0.60;;;;;;;2.10;100.00;100813.73;105427;1259;65651;-52
2023/11/17 01:41:55;;;;;;;1.70;0.60;;;;;;;2.09;100.00;100811.60;105422;1256;72710;-54
2023/11/17 01:44:22;;;;;;;1.20;0.50;;;;;;;2.09;100.00;100809.83;105592;1258;60812;-53
2023/11/17 01:46:51;;;;;;;1.20;0.60;;;;;;;2.10;100.00;100809.48;105385;1261;60477;-58
2023/11/17 01:49:21;;;;;;;1.10;0.50;;;;;;;2.10;100.00;100801.69;105635;1253;73958;-55
2023/11/17 01:51:51;;;;;;;0.70;0.60;;;;;;;2.09;100.00;100798.85;105449;1258;67210;-53
2023/11/17 01:54:19;;;;;;;0.60;0.50;;;;;;;2.10;100.00;100796.38;105437;1254;71786;-55
2023/11/17 01:56:47;;;;;;;0.90;0.60;;;;;;;2.06;100.00;100792.28;105570;1253;60386;-57
2023/11/17 01:59:15;;;;;;;0.80;0.60;;;;;;;2.02;100.00;100791.58;105679;1253;60330;-56
2023/11/17 02:01:43;;;;;;;0.80;0.60;;;;;;;1.99;100.00;100788.55;105558;1253;74282;-55
2023/11/17 02:04:10;;;;;;;0.80;0.60;;;;;;;1.96;100.00;100790.67;105386;1253;67837;-56
2023/11/17 02:07:05;;;;;;;0.60;0.60;;;;;;;1.92;100.00;100784.64;105492;1258;72761;-53
2023/11/17 02:09:37;;;;;;;0.60;0.50;;;;;;;1.86;100.00;100792.95;103124;1259;3415174;-55
2023/11/17 02:13:24;;;;;;;1.40;0.60;;;;;;;1.77;100.00;100843.87;102220;1295;601747;-54
2023/11/17 02:15:54;;;;;;;0.60;0.50;;;;;;;1.73;100.00;100887.55;105814;1269;60965;-53
2023/11/17 02:18:25;;;;;;;0.50;0.40;;;;;;;1.71;100.00;100856.58;106365;1266;58925;-55
2023/11/17 02:20:52;;;;;;;0.70;0.50;;;;;;;1.70;100.00;100850.20;105816;1268;72314;-55
2023/11/17 02:23:20;;;;;;;1.90;0.70;;;;;;;1.68;100.00;100838.52;104465;1272;68062;-54
2023/11/17 02:26:17;;;;;;;0.60;0.50;;;;;;;1.69;100.00;100834.29;101965;1264;3498600;-56
2023/11/17 02:28:58;;;;;;;0.80;0.60;;;;;;;1.68;100.00;100840.66;104650;1269;59807;-55
2023/11/17 02:31:32;;;;;;;0.60;0.50;;;;;;;1.67;100.00;100834.80;104708;1264;59696;-57
2023/11/17 02:34:08;;;;;;;1.10;0.80;;;;;;;1.67;100.00;100828.25;105191;1266;72338;-54
2023/11/17 02:36:38;;;;;;;0.70;0.50;;;;;;;1.68;100.00;100823.48;105130;1263;67065;-57
2023/11/17 02:39:24;;;;;;;2.80;0.80;;;;;;;1.68;100.00;100814.99;104569;1266;71434;-56
2023/11/17 02:41:59;;;;;;;0.80;0.70;;;;;;;1.66;100.00;100819.23;104730;1268;59630;-53
2023/11/17 02:44:28;;;;;;;0.70;0.60;;;;;;;1.63;100.00;100804.15;106669;1265;60041;-53
2023/11/17 02:47:03;;;;;;;0.60;0.60;;;;;;;1.61;100.00;100794.09;105606;1264;72257;-57
2023/11/17 02:49:46;;;;;;;1.10;0.60;;;;;;;1.61;100.00;100794.44;104840;1264;65651;-53
2023/11/17 02:52:20;;;;;;;0.70;0.60;;;;;;;1.61;100.00;100797.27;104441;1266;71237;-55
2023/11/17 02:54:48;;;;;;;0.50;0.50;;;;;;;1.59;100.00;100793.01;105481;1265;59699;-55
2023/11/17 02:57:19;;;;;;;0.60;0.50;;;;;;;1.57;100.00;100790.16;107203;1266;61441;-55
2023/11/17 02:59:47;;;;;;;0.60;0.60;;;;;;;1.55;100.00;100789.61;108394;1264;73056;-55
2023/11/17 03:02:15;;;;;;;0.50;0.40;;;;;;;1.53;100.00;100784.85;108041;1267;65891;-57
2023/11/17 03:04:43;;;;;;;3.90;0.60;;;;;;;1.51;100.00;100784.48;108395;1264;72901;-55
2023/11/17 03:07:11;;;;;;;0.50;0.50;;;;;;;1.49;100.00;100780.93;108133;1265;58159;-53
2023/11/17 03:09:39;;;;;;;0.70;0.60;;;;;;;1.48;100.00;100783.05;108226;1266;60004;-54
2023/11/17 03:12:06;;;;;;;0.90;0.70;;;;;;;1.49;100.00;100781.64;108170;1267;72399;-53
2023/11/17 03:14:34;;;;;;;3.80;0.90;;;;;;;1.49;100.00;100786.05;108205;1266;65626;-56
2023/11/17 03:17:01;;;;;;;1.20;0.80;;;;;;;1.47;100.00;100783.39;107969;1266;73229;-54
2023/11/17 03:19:30;;;;;;;0.80;0.80;;;;;;;1.46;100.00;100785.15;108164;1265;58616;-57
2023/11/17 03:21:58;;;;;;;1.10;0.70;;;;;;;1.45;100.00;100792.58;106157;1265;59683;-53
2023/11/17 03:24:27;;;;;;;0.70;0.70;;;;;;;1.42;100.00;100794.35;108257;1266;74054;-53
2023/11/17 03:26:56;;;;;;;1.20;0.80;;;;;;;1.41;100.00;100798.76;108147;1266;65788;-57
2023/11/17 03:29:25;;;;;;;1.40;0.70;;;;;;;1.40;100.00;100798.75;108170;1265;71472;-53
2023/11/17 03:31:53;;;;;;;0.60;0.50;;;;;;;1.41;100.00;100798.23;108120;1266;61135;-54
2023/11/17 03:34:29;;;;;;;0.70;0.60;;;;;;;1.41;100.00;100795.40;108067;1266;60741;-59
2023/11/17 03:37:03;;;;;;;0.80;0.60;;;;;;;1.41;100.00;100797.87;108229;1266;72722;-58
2023/11/17 03:39:41;;;;;;;0.90;0.50;;;;;;;1.40;100.00;100802.29;108173;1266;67201;-53
2023/11/17 03:42:13;;;;;;;1.30;0.70;;;;;;;1.42;100.00;100803.36;108302;1265;72735;-54
2023/11/17 03:44:40;;;;;;;0.70;0.60;;;;;;;1.44;100.00;100798.59;108204;1266;61276;-55
2023/11/17 03:47:08;;;;;;;0.80;0.70;;;;;;;1.48;100.00;100800.91;108162;1265;60722;-54
2023/11/17 03:49:36;;;;;;;0.90;0.70;;;;;;;1.49;100.00;100796.84;104641;1269;73383;-55
2023/11/17 03:52:04;;;;;;;0.90;0.70;;;;;;;1.43;100.00;100792.76;104507;1270;67008;-59
2023/11/17 03:54:32;;;;;;;2.80;0.70;;;;;;;1.36;100.00;100786.52;104552;1267;72609;-56
2023/11/17 03:57:01;;;;;;;1.80;0.60;;;;;;;1.31;100.00;100782.42;105203;1266;59660;-53
2023/11/17 03:59:30;;;;;;;1.70;0.70;;;;;;;1.25;100.00;100777.98;104459;1269;60080;-52
2023/11/17 04:01:58;;;;;;;0.90;0.70;;;;;;;1.23;100.00;100777.95;104704;1266;72446;-56
2023/11/17 04:04:26;;;;;;;0.80;0.70;;;;;;;1.20;100.00;100781.65;104537;1267;68453;-57
2023/11/17 04:06:57;;;;;;;0.60;0.60;;;;;;;1.20;100.00;100776.52;105596;1267;72130;-54
2023/11/17 04:09:25;;;;;;;1.50;0.80;;;;;;;1.20;100.00;100774.58;104402;1268;60122;-55
2023/11/17 04:11:53;;;;;;;0.80;0.70;;;;;;;1.20;100.00;100767.86;104381;1271;59711;-52
2023/11/17 04:14:21;;;;;;;0.90;0.70;;;;;;;1.21;100.00;100764.14;105368;1268;72266;-56
2023/11/17 04:16:49;;;;;;;0.90;0.60;;;;;;;1.22;100.00;100764.34;104367;1266;66331;-56
2023/11/17 04:19:20;;;;;;;2.30;0.70;;;;;;;1.23;100.00;100763.98;104839;1270;73514;-54
2023/11/17 04:21:49;;;;;;;1.50;0.70;;;;;;;1.24;100.00;100767.18;104920;1267;59730;-54
2023/11/17 04:24:17;;;;;;;1.40;0.60;;;;;;;1.25;100.00;100766.83;104545;1266;59762;-55
2023/11/17 04:26:46;;;;;;;0.80;0.70;;;;;;;1.24;100.00;100764.36;104326;1267;71858;-56
2023/11/17 04:29:14;;;;;;;0.80;0.70;;;;;;;1.26;100.00;100766.85;104586;1265;65854;-55
2023/11/17 04:31:42;;;;;;;0.90;0.80;;;;;;;1.25;100.00;100763.66;104529;1267;72677;-52
2023/11/17 04:34:13;;;;;;;0.90;0.80;;;;;;;1.22;100.00;100759.03;104549;1266;59840;-53
2023/11/17 04:36:41;;;;;;;2.20;0.90;;;;;;;1.18;100.00;100757.08;104522;1271;59663;-55
2023/11/17 04:39:17;;;;;;;1.10;0.70;;;;;;;1.13;100.00;100752.44;104476;1268;73187;-52
2023/11/17 04:41:45;;;;;;;2.10;0.80;;;;;;;1.03;100.00;100751.86;104393;1271;67184;-53
2023/11/17 04:44:13;;;;;;;0.80;0.70;;;;;;;0.96;100.00;100743.50;104255;1265;73691;-55
2023/11/17 04:46:40;;;;;;;1.70;0.70;;;;;;;0.92;100.00;100739.77;104270;1271;59664;-53
2023/11/17 04:49:08;;;;;;;1.10;0.70;;;;;;;0.91;100.00;100731.81;104789;1268;59625;-52
2023/11/17 04:51:35;;;;;;;1.60;0.70;;;;;;;0.91;100.00;100733.05;104436;1272;73179;-56
2023/11/17 04:54:03;;;;;;;1.00;0.90;;;;;;;0.92;100.00;100728.64;104929;1262;66834;-51
2023/11/17 04:56:31;;;;;;;0.70;0.60;;;;;;;0.93;100.00;100730.41;104937;1262;72811;-55
2023/11/17 04:58:58;;;;;;;4.60;0.70;;;;;;;0.96;100.00;100733.42;104839;1262;59766;-55
2023/11/17 05:01:26;;;;;;;1.30;0.90;;;;;;;1.00;100.00;100738.05;104874;1267;61148;-53
2023/11/17 05:03:53;;;;;;;1.40;0.50;;;;;;;1.05;100.00;100743.55;106382;1267;71188;-57
2023/11/17 05:06:23;;;;;;;9.80;1.20;;;;;;;1.10;100.00;100740.58;104865;1264;68174;-56
2023/11/17 05:08:51;;;;;;;1.10;0.80;;;;;;;1.13;100.00;100747.48;105320;1263;71398;-56
2023/11/17 05:11:21;;;;;;;3.50;0.70;;;;;;;1.17;100.00;100750.52;104670;1259;59737;-57
2023/11/17 05:13:48;;;;;;;1.00;0.90;;;;;;;1.18;100.00;100757.79;104908;1259;60059;-54
2023/11/17 05:16:15;;;;;;;1.90;0.80;;;;;;;1.19;100.00;100761.67;104514;1260;73293;-56
2023/11/17 05:18:43;;;;;;;2.30;0.60;;;;;;;1.22;100.00;100763.98;104587;1263;65645;-53
2023/11/17 05:21:12;;;;;;;0.90;0.90;;;;;;;1.25;100.00;100764.02;104555;1259;72623;-53
2023/11/17 05:23:40;;;;;;;1.30;0.80;;;;;;;1.28;100.00;100765.26;104987;1260;59628;-56
2023/11/17 05:26:08;;;;;;;1.10;0.90;;;;;;;1.32;100.00;100769.17;104802;1263;59627;-53
2023/11/17 05:28:35;;;;;;;1.10;0.80;;;;;;;1.34;100.00;100778.92;104798;1260;70808;-54
2023/11/17 05:31:03;;;;;;;4.10;1.10;;;;;;;1.37;100.00;100787.40;104893;1260;64658;-53
2023/11/17 05:33:31;;;;;;;3.90;1.30;;;;;;;1.37;100.00;100794.30;104896;1260;71460;-53
2023/11/17 05:35:58;;;;;;;1.20;1.00;;;;;;;1.36;100.00;100798.55;104365;1264;59737;-57
2023/11/17 05:38:26;;;;;;;1.10;1.00;;;;;;;1.35;100.00;100793.78;104760;1257;59576;-51
2023/11/17 05:40:54;;;;;;;1.10;1.00;;;;;;;1.35;100.00;100798.55;104494;1255;73218;-52
2023/11/17 05:43:21;;;;;;;1.40;0.80;;;;;;;1.33;100.00;100803.48;104863;1254;67881;-54
2023/11/17 05:45:50;;;;;;;1.50;0.90;;;;;;;1.32;100.00;100803.66;104882;1258;71749;-55
2023/11/17 05:48:18;;;;;;;1.70;0.80;;;;;;;1.34;100.00;100802.79;105254;1259;63160;-52
2023/11/17 05:50:45;;;;;;;3.40;0.80;;;;;;;1.34;100.00;100808.98;105225;1254;62461;-53
2023/11/17 05:53:13;;;;;;;1.80;0.80;;;;;;;1.37;100.00;100807.39;104957;1259;70832;-55
2023/11/17 05:55:41;;;;;;;0.90;0.70;;;;;;;1.39;100.00;100816.41;108991;1254;65839;-52
2023/11/17 05:58:09;;;;;;;2.10;1.10;;;;;;;1.40;100.00;100817.14;108918;1254;73170;-52
2023/11/17 06:00:37;;;;;;;0.90;0.70;;;;;;;1.42;100.00;100818.92;108865;1254;60828;-58
2023/11/17 06:03:04;;;;;;;1.10;1.00;;;;;;;1.46;100.00;100825.84;108882;1254;58840;-55
2023/11/17 06:05:31;;;;;;;0.90;0.80;;;;;;;1.50;100.00;100829.41;108961;1254;72943;-53
2023/11/17 06:07:59;;;;;;;2.60;0.90;;;;;;;1.56;100.00;100833.67;108901;1254;66399;-58
2023/11/17 06:10:26;;;;;;;2.00;0.90;;;;;;;1.61;100.00;100839.55;109005;1254;72710;-55
2023/11/17 06:12:54;;;;;;;1.70;0.90;;;;;;;1.66;100.00;100845.40;108985;1254;59685;-53
2023/11/17 06:15:26;;;;;;;1.50;1.30;;;;;;;1.70;100.00;100848.62;108942;1254;58373;-54
2023/11/17 06:17:55;;;;;;;2.10;1.50;;;;;;;1.73;100.00;100851.64;108940;1254;73094;-55
2023/11/17 06:20:25;;;;;;;2.60;1.40;;;;;;;1.75;100.00;100849.17;108927;1256;66546;-55
2023/11/17 06:22:53;;;;;;;1.30;1.00;;;;;;;1.77;100.00;100854.32;109006;1256;71054;-52
2023/11/17 06:25:20;;;;;;;1.50;1.10;;;;;;;1.79;100.00;100853.96;105521;1256;60587;-52
2023/11/17 06:27:49;;;;;;;1.70;1.40;;;;;;;1.78;100.00;100849.36;109035;1254;58859;-51
2023/11/17 06:30:17;;;;;;;2.40;1.40;;;;;;;1.76;100.00;100852.02;108945;1253;73820;-54
2023/11/17 06:32:45;;;;;;;2.20;1.10;;;;;;;1.75;100.00;100851.83;109058;1255;66778;-58
2023/11/17 06:35:14;;;;;;;2.50;0.90;;;;;;;1.75;100.00;100852.71;108949;1256;72908;-57
2023/11/17 06:37:42;;;;;;;5.20;1.20;;;;;;;1.75;100.00;100852.89;108961;1254;60951;-59
2023/11/17 06:40:10;;;;;;;3.60;1.00;;;;;;;1.76;100.00;100853.08;108845;1256;60098;-60
2023/11/17 06:42:40;;;;;;;2.30;1.10;;;;;;;1.79;100.00;100851.48;109040;1254;72590;-58
2023/11/17 06:45:11;;;;;;;2.30;0.90;;;;;;;1.83;100.00;100854.34;108595;1255;67076;-57
2023/11/17 06:47:43;;;;;;;1.20;1.00;;;;;;;1.87;100.00;100853.11;106617;1257;72735;-59
2023/11/17 06:50:11;;;;;;;3.00;1.10;;;;;;;1.92;100.00;100858.45;108194;1255;60670;-59
2023/11/17 06:52:39;;;;;;;1.00;0.90;;;;;;;1.97;100.00;100859.52;105644;1259;60487;-56
2023/11/17 06:55:09;;;;;;;1.10;0.90;;;;;;;1.99;100.00;100859.17;106187;1254;72613;-59
2023/11/17 06:57:36;;;;;;;1.60;1.00;;;;;;;1.98;100.00;100861.65;105264;1259;65838;-57
2023/11/17 07:00:10;;;;;;;1.40;1.20;;;;;;;1.98;100.00;100863.60;105153;1259;71175;-56
2023/11/17 07:02:40;;;;;;;1.40;1.30;;;;;;;1.96;100.00;100866.78;106906;1254;60441;-60
2023/11/17 07:05:10;;;;;;;2.70;1.40;;;;;;;1.95;100.00;100866.98;105344;1259;60368;-59
2023/11/17 07:07:39;;;;;;;2.50;1.40;;;;;;;1.91;100.00;100863.58;106038;1254;72950;-56
2023/11/17 07:10:14;;;;;;;3.30;1.20;;;;;;;1.86;100.00;100862.14;105611;1259;66037;-58
2023/11/17 07:12:42;;;;;;;1.70;1.20;;;;;;;1.83;100.00;100867.09;105476;1259;71742;-58
2023/11/17 07:15:13;;;;;;;1.50;1.00;;;;;;;1.83;100.00;100868.33;105126;1255;60553;-59
2023/11/17 07:17:42;;;;;;;4.70;1.20;;;;;;;1.82;100.00;100866.36;105731;1259;60437;-58
2023/11/17 07:20:11;;;;;;;1.10;1.00;;;;;;;1.83;100.00;100867.80;105463;1258;74009;-60
2023/11/17 07:22:42;;;;;;;1.20;1.10;;;;;;;1.87;100.00;100870.11;106892;1258;65108;-59
2023/11/17 07:25:11;;;;;;;1.10;0.90;;;;;;;1.93;100.00;100874.39;108841;1257;72775;-59
2023/11/17 07:27:39;;;;;;;1.30;1.20;;;;;;;1.98;100.00;100877.41;105785;1254;60875;-59
2023/11/17 07:30:13;;;;;;;1.50;1.00;;;;;;;2.04;100.00;100883.29;106255;1259;60523;-58
2023/11/17 07:32:41;;;;;;;1.60;1.50;;;;;;;2.09;100.00;100898.36;105340;1259;74351;-58
2023/11/17 07:35:09;;;;;;;1.20;1.00;;;;;;;2.12;100.00;100905.80;105379;1259;67321;-60
2023/11/17 07:37:37;;;;;;;4.00;1.10;;;;;;;2.17;100.00;100916.27;104840;1259;71454;-57
2023/11/17 07:40:05;;;;;;;1.20;1.00;;;;;;;2.21;100.00;100923.02;105014;1262;60516;-59
2023/11/17 07:42:33;;;;;;;1.60;1.30;;;;;;;2.24;100.00;100927.64;105337;1255;59227;-59
2023/11/17 07:45:03;;;;;;;1.70;1.60;;;;;;;2.26;100.00;100934.56;105244;1257;73364;-60
2023/11/17 07:47:33;;;;;;;2.20;2.00;;;;;;;2.30;100.00;100943.06;105653;1259;65518;-60
2023/11/17 07:50:07;;;;;;;2.00;1.80;;;;;;;2.33;100.00;100950.16;105099;1257;71441;-58
2023/11/17 07:52:34;;;;;;;2.20;2.00;;;;;;;2.34;100.00;100957.79;104845;1257;60680;-60
2023/11/17 07:55:02;;;;;;;2.10;2.00;;;;;;;2.34;100.00;100954.24;105020;1259;60537;-58
2023/11/17 07:57:30;;;;;;;2.90;2.20;;;;;;;2.34;100.00;100959.73;106454;1257;73894;-58
2023/11/17 07:59:57;;;;;;;2.30;1.70;;;;;;;2.35;100.00;100961.88;105083;1259;68588;-58
2023/11/17 08:02:25;;;;;;;3.50;1.70;;;;;;;2.37;100.00;100967.55;104741;1257;71724;-60
2023/11/17 08:04:54;;;;;;;2.10;1.10;;;;;;;2.40;100.00;100973.58;104812;1259;60542;-55
2023/11/17 08:07:22;;;;;;;4.30;1.40;;;;;;;2.43;100.00;100983.52;107500;1257;59746;-59
2023/11/17 08:09:49;;;;;;;1.40;1.20;;;;;;;2.45;100.00;100987.61;105416;1257;72640;-59
2023/11/17 08:12:18;;;;;;;4.50;1.60;;;;;;;2.48;100.00;100987.42;105196;1255;65810;-60
2023/11/17 08:14:46;;;;;;;1.30;1.20;;;;;;;2.52;100.00;100987.80;105232;1256;70468;-59
2023/11/17 08:17:13;;;;;;;1.60;1.50;;;;;;;2.56;100.00;100990.11;105283;1259;60438;-59
2023/11/17 08:19:41;;;;;;;2.70;2.00;;;;;;;2.59;100.00;100990.30;105147;1259;60934;-57
2023/11/17 08:22:08;;;;;;;5.10;2.20;;;;;;;2.62;100.00;100993.17;105149;1256;73942;-56
2023/11/17 08:24:36;;;;;;;2.40;2.20;;;;;;;2.63;100.00;101001.33;105051;1259;67236;-58
2023/11/17 08:27:04;;;;;;;3.40;3.10;;;;;;;2.63;100.00;101001.14;105113;1257;72714;-59
2023/11/17 08:29:31;;;;;;;5.30;3.30;;;;;;;2.64;100.00;101001.14;105066;1259;60441;-57
2023/11/17 08:31:59;;;;;;;4.00;3.10;;;;;;;2.63;100.00;101005.92;105611;1256;60503;-57
2023/11/17 08:34:26;;;;;;;5.00;3.50;;;;;;;2.61;100.00;101002.91;105227;1254;72606;-58
2023/11/17 08:36:54;;;;;;;2.70;2.50;;;;;;;2.61;100.00;101006.63;105100;1259;67273;-56
2023/11/17 08:39:25;;;;;;;3.20;2.90;;;;;;;2.61;100.00;101008.39;105098;1256;71347;-59
2023/11/17 08:41:55;;;;;;;5.10;2.70;;;;;;;2.62;100.00;101010.71;105019;1256;63638;-58
2023/11/17 08:44:23;;;;;;;3.80;2.20;;;;;;;2.65;100.00;101009.98;104467;1254;60363;-59
2023/11/17 08:46:51;;;;;;;1.80;1.60;;;;;;;2.67;100.00;101012.48;105133;1260;73872;-56
2023/11/17 08:49:20;;;;;;;4.30;2.70;;;;;;;2.69;100.00;101009.49;105119;1254;66105;-59
2023/11/17 08:51:49;;;;;;;3.40;2.10;;;;;;;2.73;100.00;101008.44;105668;1262;71492;-59
2023/11/17 08:54:17;;;;;;;2.60;2.40;;;;;;;2.79;100.00;101008.81;105599;1257;61039;-56
2023/11/17 08:56:48;;;;;;;3.30;2.60;;;;;;;2.84;100.00;101007.94;105159;1259;60361;-59
2023/11/17 08:59:16;;;;;;;3.40;3.10;;;;;;;2.88;100.00;101012.73;108911;1255;72651;-60
2023/11/17 09:01:44;;;;;;;4.40;4.00;;;;;;;2.91;100.00;101011.33;108911;1255;65704;-59
2023/11/17 09:04:12;;;;;;;3.50;3.10;;;;;;;2.93;100.00;101008.15;108684;1256;73205;-56
2023/11/17 09:06:40;;;;;;;3.60;3.10;;;;;;;2.94;100.00;101008.86;108931;1257;58439;-56
2023/11/17 09:09:11;;;;;;;4.50;3.00;;;;;;;2.95;100.00;101014.36;108955;1254;60717;-60
2023/11/17 09:11:58;;;;;;;3.40;3.10;;;;;;;2.93;100.00;101023.39;108841;1256;73017;-59
2023/11/17 09:14:28;;;;;;;3.20;2.80;;;;;;;2.92;100.00;101012.75;108953;1254;66817;-59
2023/11/17 09:17:01;;;;;;;4.10;3.20;;;;;;;2.92;100.00;101011.68;108945;1254;72800;-59
2023/11/17 09:19:33;;;;;;;3.50;3.10;;;;;;;2.92;100.00;101007.95;108869;1255;61410;-58
2023/11/17 09:22:00;;;;;;;3.60;3.30;;;;;;;2.93;100.00;101009.03;108809;1259;59291;-56
2023/11/17 09:24:28;;;;;;;3.60;3.00;;;;;;;2.93;100.00;101005.67;108976;1254;72666;-59
2023/11/17 09:26:56;;;;;;;3.30;3.00;;;;;;;2.95;100.00;101003.73;108879;1257;66782;-58
2023/11/17 09:29:25;;;;;;;3.60;2.70;;;;;;;3.00;100.00;101009.40;108932;1255;72415;-59
2023/11/17 09:31:53;;;;;;;5.00;3.20;;;;;;;3.06;100.00;101012.60;108944;1255;61117;-57
2023/11/17 09:34:20;;;;;;;4.00;3.20;;;;;;;3.10;100.00;101012.80;108887;1255;58211;-60
2023/11/17 09:36:48;;;;;;;3.60;3.30;;;;;;;3.15;100.00;101016.17;108864;1257;73901;-58
2023/11/17 09:39:15;;;;;;;3.30;3.00;;;;;;;3.20;100.00;101023.29;108824;1259;67268;-59
2023/11/17 09:41:45;;;;;;;4.50;3.50;;;;;;;3.24;100.00;101031.96;108120;1257;73353;-57
2023/11/17 09:44:13;;;;;;;6.60;3.70;;;;;;;3.27;100.00;101032.69;106025;1255;60429;-55
2023/11/17 09:46:45;;;;;;;6.00;4.40;;;;;;;3.31;100.00;101041.22;105040;1257;60496;-55
2023/11/17 09:49:14;;;;;;;3.70;3.40;;;;;;;3.32;100.00;101047.41;105105;1254;72654;-56
2023/11/17 09:51:42;;;;;;;4.60;4.20;;;;;;;3.33;100.00;101048.84;105316;1257;66403;-56
2023/11/17 09:54:13;;;;;;;7.40;3.90;;;;;;;3.33;100.00;101044.93;105254;1257;72730;-58
2023/11/17 09:56:45;;;;;;;4.30;3.90;;;;;;;3.32;100.00;101048.13;106879;1256;61376;-56
2023/11/17 09:59:12;;;;;;;4.70;4.40;;;;;;;3.31;100.00;101049.56;105412;1259;60457;-58
2023/11/17 10:01:40;;;;;;;5.30;4.90;;;;;;;3.32;100.00;101050.42;105149;1261;73957;-58
2023/11/17 10:04:09;;;;;;;6.10;5.40;;;;;;;3.35;100.00;101050.09;106605;1258;65815;-58
2023/11/17 10:06:38;;;;;;;7.50;6.20;;;;;;;3.38;100.00;101053.11;104811;1262;71807;-58
2023/11/17 10:09:07;;;;;;;11.40;7.00;;;;;;;3.41;100.00;101056.84;104900;1254;60916;-57
2023/11/17 10:11:35;;;;;;;9.30;6.70;;;;;;;3.44;100.00;101063.41;105862;1255;61504;-60
2023/11/17 10:14:04;;;;;;;7.70;6.10;;;;;;;3.47;100.00;101064.14;107330;1256;73911;-61
2023/11/17 10:16:32;;;;;;;9.00;7.30;;;;;;;3.50;100.00;101066.08;105277;1260;65754;-59
2023/11/17 10:19:01;;;;;;;9.50;7.00;;;;;;;3.53;100.00;101066.27;105193;1259;71076;-62
2023/11/17 10:21:29;;;;;;;8.00;7.00;;;;;;;3.51;100.00;101070.87;105279;1261;60573;-60
2023/11/17 10:23:57;;;;;;;8.10;5.90;;;;;;;3.49;100.00;101069.44;105201;1256;61034;-59
2023/11/17 10:26:25;;;;;;;8.00;6.10;;;;;;;3.50;100.00;101065.02;105274;1256;74716;-59
2023/11/17 10:28:54;;;;;;;7.10;6.40;;;;;;;3.51;100.00;101067.14;105224;1256;67115;-60
2023/11/17 10:31:21;;;;;;;5.30;4.90;;;;;;;3.52;100.00;101068.92;105295;1255;71206;-61
2023/11/17 10:33:53;;;;;;;5.80;4.90;;;;;;;3.53;100.00;101068.94;105422;1259;60502;-62
2023/11/17 10:36:24;;;;;;;5.50;4.80;;;;;;;3.54;100.00;101076.03;105266;1255;61516;-60
2023/11/17 10:39:03;;;;;;;5.60;5.10;;;;;;;3.55;100.00;101072.30;105364;1256;73903;-59
2023/11/17 10:41:32;;;;;;;6.10;4.70;;;;;;;3.57;100.00;101081.73;105172;1259;66151;-55
2023/11/17 10:44:02;;;;;;;4.90;4.40;;;;;;;3.60;100.00;101077.09;105874;1256;71399;-57
2023/11/17 10:46:31;;;;;;;3.80;3.50;;;;;;;3.62;100.00;101077.83;105493;1264;60861;-59
2023/11/17 10:48:59;;;;;;;3.30;3.00;;;;;;;3.65;100.00;101079.06;105435;1261;60492;-60
2023/11/17 10:51:28;;;;;;;4.30;2.40;;;;;;;3.67;100.00;101077.98;105750;1257;72684;-59
2023/11/17 10:54:11;;;;;;;4.50;3.60;;;;;;;3.68;100.00;101080.83;105186;1259;67080;-57
2023/11/17 10:56:40;;;;;;;4.20;3.90;;;;;;;3.69;100.00;101093.80;105295;1261;70826;-55
2023/11/17 10:59:15;;;;;;;6.80;4.90;;;;;;;3.70;100.00;101088.29;105271;1260;60425;-60
2023/11/17 11:01:44;;;;;;;4.50;4.10;;;;;;;3.64;100.00;101087.58;105415;1260;60530;-58
2023/11/17 11:04:15;;;;;;;4.90;4.40;;;;;;;3.60;100.00;101080.65;105481;1260;75040;-58
2023/11/17 11:06:43;;;;;;;6.10;4.10;;;;;;;3.57;100.00;101085.09;105154;1260;67482;-59
2023/11/17 11:09:17;;;;;;;5.00;4.50;;;;;;;3.54;100.00;101081.71;106051;1258;71380;-59
2023/11/17 11:11:48;;;;;;;6.90;3.70;;;;;;;3.50;100.00;101084.54;105338;1256;60973;-57
2023/11/17 11:14:17;;;;;;;7.00;4.90;;;;;;;3.46;100.00;101085.61;105632;1258;60463;-60
2023/11/17 11:16:46;;;;;;;4.90;4.40;;;;;;;3.43;100.00;101078.32;105420;1260;72067;-59
2023/11/17 11:19:17;;;;;;;9.40;4.90;;;;;;;3.42;100.00;101075.29;105473;1255;66870;-58
2023/11/17 11:22:00;;;;;;;5.50;4.00;;;;;;;3.41;100.00;101080.79;105243;1253;72947;-57
2023/11/17 11:24:34;;;;;;;6.50;4.00;;;;;;;3.43;100.00;101081.15;105059;1257;60534;-57
2023/11/17 11:27:06;;;;;;;5.20;4.40;;;;;;;3.45;100.00;101084.00;105903;1259;60483;-57